Time;durP1;ratioP1;P1;durP2;ratioP2;P2;SDS_P1;SDS_P2;PMS_P1;PMS_P2;Temp;Humidity;BMP_temperature;BMP_pressure;BME280_temperature;BME280_humidity;BME280_pressure;Samples;Min_cycle;Max_cycle;Signal;HPM_P1;HPM_P2
2023/10/11 00:02:51;;;;;;;22.67;14.57;;;;;;;;;;4970890;28;20042;-76
2023/10/11 00:05:19;;;;;;;20.52;14.68;;;;;;;;;;4955162;28;20027;-77
2023/10/11 00:07:44;;;;;;;19.00;13.98;;;;;;;;;;4940245;28;20043;-77
2023/10/11 00:10:19;;;;;;;22.23;14.75;;;;;;;;;;4955584;28;20125;-77
2023/10/11 00:12:50;;;;;;;19.73;14.88;;;;;;;;;;4954387;28;20606;-77
2023/10/11 00:15:18;;;;;;;20.00;14.77;;;;;;;;;;4940817;28;20038;-77
2023/10/11 00:17:46;;;;;;;21.00;13.48;;;;;;;;;;4947014;28;20042;-77
2023/10/11 00:22:57;;;;;;;23.67;13.88;;;;;;;;;;4955415;28;20302;-76
2023/10/11 00:25:26;;;;;;;21.33;14.20;;;;;;;;;;4971306;28;20043;-77
2023/10/11 00:27:52;;;;;;;19.67;13.95;;;;;;;;;;4960999;28;20031;-76
2023/10/11 00:30:19;;;;;;;20.75;13.70;;;;;;;;;;4956263;28;20123;-76
2023/10/11 00:32:47;;;;;;;22.05;14.25;;;;;;;;;;4953234;28;20036;-77
2023/10/11 00:35:19;;;;;;;19.17;12.80;;;;;;;;;;4956468;28;20344;-77
2023/10/11 00:37:51;;;;;;;17.85;12.57;;;;;;;;;;4969750;28;20039;-76
2023/10/11 00:40:25;;;;;;;17.90;12.73;;;;;;;;;;4977729;28;20106;-77
2023/10/11 00:42:51;;;;;;;19.52;12.60;;;;;;;;;;4956870;28;20049;-76
2023/10/11 00:45:17;;;;;;;17.67;12.35;;;;;;;;;;4959658;28;20047;-76
2023/10/11 00:47:45;;;;;;;19.77;13.02;;;;;;;;;;4942552;28;20039;-76
2023/10/11 00:50:14;;;;;;;18.13;12.10;;;;;;;;;;4975923;28;20529;-77
2023/10/11 00:52:42;;;;;;;17.77;11.70;;;;;;;;;;4958272;28;20034;-77
2023/10/11 00:55:16;;;;;;;15.93;11.55;;;;;;;;;;4964646;28;20039;-77
2023/10/11 00:57:45;;;;;;;19.13;12.25;;;;;;;;;;4979248;28;20070;-77
2023/10/11 01:00:13;;;;;;;19.73;12.02;;;;;;;;;;4958252;28;20679;-76
2023/10/11 01:02:39;;;;;;;19.35;12.50;;;;;;;;;;4958039;28;20503;-76
2023/10/11 01:05:06;;;;;;;18.27;11.65;;;;;;;;;;4943878;28;20039;-75
2023/10/11 01:07:32;;;;;;;16.88;11.23;;;;;;;;;;4957015;28;20089;-76
2023/10/11 01:09:57;;;;;;;21.67;12.32;;;;;;;;;;4974660;28;20055;-76
2023/10/11 01:12:22;;;;;;;16.83;11.43;;;;;;;;;;4974675;28;20434;-76
2023/10/11 01:14:57;;;;;;;20.65;11.68;;;;;;;;;;4959456;28;20476;-76
2023/10/11 01:17:23;;;;;;;17.98;10.60;;;;;;;;;;4956147;28;20034;-76
2023/10/11 01:19:51;;;;;;;16.95;11.50;;;;;;;;;;4965036;28;20035;-76
2023/10/11 01:22:19;;;;;;;18.05;11.20;;;;;;;;;;4956581;28;20058;-76
2023/10/11 01:24:47;;;;;;;19.45;11.23;;;;;;;;;;4958367;28;21018;-76
2023/10/11 01:27:14;;;;;;;16.42;10.88;;;;;;;;;;4958040;28;20475;-76
2023/10/11 01:29:40;;;;;;;14.90;10.63;;;;;;;;;;4960011;28;20038;-76
2023/10/11 01:32:06;;;;;;;15.73;10.40;;;;;;;;;;4947726;28;20034;-76
2023/10/11 01:34:32;;;;;;;16.88;10.13;;;;;;;;;;4942099;28;20039;-76
2023/10/11 01:36:58;;;;;;;14.40;9.45;;;;;;;;;;4964256;28;20046;-76
2023/10/11 01:39:23;;;;;;;17.50;10.20;;;;;;;;;;4943587;28;20412;-76
2023/10/11 01:41:49;;;;;;;14.77;9.88;;;;;;;;;;4962852;28;20046;-76
2023/10/11 01:44:15;;;;;;;17.48;9.80;;;;;;;;;;4963719;28;20089;-76
2023/10/11 01:46:40;;;;;;;16.50;9.55;;;;;;;;;;4957024;28;20039;-76
2023/10/11 01:49:09;;;;;;;16.58;9.45;;;;;;;;;;4964907;28;20039;-76
2023/10/11 01:51:46;;;;;;;15.35;9.20;;;;;;;;;;4944273;28;20038;-76
2023/10/11 01:54:11;;;;;;;14.87;9.93;;;;;;;;;;4958985;28;20039;-77
2023/10/11 01:56:40;;;;;;;14.70;9.10;;;;;;;;;;4947642;28;20424;-77
2023/10/11 01:59:07;;;;;;;17.60;10.20;;;;;;;;;;4942745;28;20459;-77
2023/10/11 02:01:43;;;;;;;15.65;9.40;;;;;;;;;;4956535;28;20187;-76
2023/10/11 02:04:20;;;;;;;13.48;8.43;;;;;;;;;;4971914;28;20555;-77
2023/10/11 02:06:48;;;;;;;18.58;9.82;;;;;;;;;;4970321;28;20035;-77
2023/10/11 02:09:13;;;;;;;13.85;8.63;;;;;;;;;;4957676;28;20550;-76
2023/10/11 02:11:41;;;;;;;16.85;8.48;;;;;;;;;;4958660;28;20034;-77
2023/10/11 02:14:07;;;;;;;13.55;8.18;;;;;;;;;;4964137;28;20039;-76
2023/10/11 02:16:33;;;;;;;13.65;7.90;;;;;;;;;;4956071;28;20094;-77
2023/10/11 02:19:02;;;;;;;14.65;8.18;;;;;;;;;;4957354;28;20047;-77
2023/10/11 02:21:31;;;;;;;14.10;7.18;;;;;;;;;;4956351;28;20539;-77
2023/10/11 02:23:58;;;;;;;15.30;8.82;;;;;;;;;;4974296;28;20050;-77
2023/10/11 02:26:32;;;;;;;13.55;7.40;;;;;;;;;;4971980;28;20636;-76
2023/10/11 02:29:01;;;;;;;14.48;7.30;;;;;;;;;;4957843;28;20217;-76
2023/10/11 02:31:31;;;;;;;11.52;7.07;;;;;;;;;;4962774;28;20038;-76
2023/10/11 02:34:04;;;;;;;13.60;7.55;;;;;;;;;;4956972;28;20035;-77
2023/10/11 02:36:35;;;;;;;10.63;6.88;;;;;;;;;;4962137;28;20380;-77
2023/10/11 02:39:05;;;;;;;10.38;6.90;;;;;;;;;;4972384;28;20035;-76
2023/10/11 02:41:31;;;;;;;11.63;7.30;;;;;;;;;;4972386;28;20529;-77
2023/10/11 02:43:57;;;;;;;11.05;7.03;;;;;;;;;;4955634;28;20039;-76
2023/10/11 02:46:24;;;;;;;10.10;6.80;;;;;;;;;;4958423;28;20396;-76
2023/10/11 02:49:18;;;;;;;12.23;6.75;;;;;;;;;;4958031;28;20105;-76
2023/10/11 02:52:05;;;;;;;13.52;7.85;;;;;;;;;;4959736;28;20557;-76
2023/10/11 02:54:34;;;;;;;11.43;7.32;;;;;;;;;;4968966;28;20767;-76
2023/10/11 02:57:05;;;;;;;14.13;7.50;;;;;;;;;;4958061;28;20047;-76
2023/10/11 02:59:33;;;;;;;10.88;7.47;;;;;;;;;;4946988;28;20769;-76
2023/10/11 03:02:04;;;;;;;15.73;8.05;;;;;;;;;;4954526;28;20522;-76
2023/10/11 03:04:43;;;;;;;14.38;7.95;;;;;;;;;;4957807;28;20047;-77
2023/10/11 03:07:20;;;;;;;14.75;7.60;;;;;;;;;;4945831;28;20031;-76
2023/10/11 03:09:46;;;;;;;12.77;7.45;;;;;;;;;;4955342;28;20121;-76
2023/10/11 03:14:56;;;;;;;16.27;9.13;;;;;;;;;;4954332;28;20053;-76
2023/10/11 03:17:24;;;;;;;12.88;8.00;;;;;;;;;;4973146;28;20499;-76
2023/10/11 03:19:52;;;;;;;14.32;8.75;;;;;;;;;;4962250;28;20039;-75
2023/10/11 03:22:20;;;;;;;14.88;8.07;;;;;;;;;;4955099;28;20392;-76
2023/10/11 03:25:13;;;;;;;13.38;7.85;;;;;;;;;;4968878;28;20625;-77
2023/10/11 03:27:42;;;;;;;15.48;7.88;;;;;;;;;;4954990;28;20031;-76
2023/10/11 03:30:13;;;;;;;11.70;7.68;;;;;;;;;;4947318;28;20038;-76
2023/10/11 03:32:41;;;;;;;15.13;8.40;;;;;;;;;;4956249;28;20113;-78
2023/10/11 03:35:08;;;;;;;;;;;;;;;;;;4958188;28;21006;-78
2023/10/11 03:37:37;;;;;;;13.07;7.65;;;;;;;;;;4956631;28;20578;-77
2023/10/11 03:40:26;;;;;;;13.55;7.70;;;;;;;;;;4957539;28;20042;-77
2023/10/11 03:42:59;;;;;;;12.63;7.40;;;;;;;;;;4960877;28;20066;-77
2023/10/11 03:45:27;;;;;;;11.38;6.80;;;;;;;;;;4971353;28;20043;-78
2023/10/11 03:47:53;;;;;;;12.02;6.93;;;;;;;;;;4955822;28;20090;-78
2023/10/11 03:50:25;;;;;;;13.63;7.97;;;;;;;;;;4957702;28;20483;-78
2023/10/11 03:52:50;;;;;;;13.63;6.72;;;;;;;;;;4956573;28;20034;-78
2023/10/11 03:55:16;;;;;;;11.68;6.72;;;;;;;;;;4956944;28;20035;-78
2023/10/11 03:57:42;;;;;;;11.68;6.30;;;;;;;;;;4962154;28;20130;-78
2023/10/11 04:02:46;;;;;;;13.45;6.65;;;;;;;;;;4960779;28;20067;-80
2023/10/11 04:05:12;;;;;;;14.20;6.82;;;;;;;;;;4955290;28;20050;-79
2023/10/11 04:07:40;;;;;;;11.73;6.53;;;;;;;;;;4970451;28;20035;-79
2023/10/11 04:10:10;;;;;;;13.73;6.65;;;;;;;;;;4958406;28;20047;-79
2023/10/11 04:12:38;;;;;;;13.32;6.15;;;;;;;;;;4977551;28;20034;-79
2023/10/11 04:15:24;;;;;;;;;;;;;;;;;;4958755;28;20485;-79
2023/10/11 04:17:49;;;;;;;12.70;6.00;;;;;;;;;;4968995;28;20382;-81
2023/10/11 04:20:33;;;;;;;11.18;6.25;;;;;;;;;;4954077;28;20034;-78
2023/10/11 04:23:10;;;;;;;14.25;5.80;;;;;;;;;;4954587;28;20035;-77
2023/10/11 04:25:38;;;;;;;12.43;5.88;;;;;;;;;;4942157;28;20042;-76
2023/10/11 04:28:05;;;;;;;11.88;5.82;;;;;;;;;;4956127;28;20039;-77
2023/10/11 04:30:53;;;;;;;11.48;6.00;;;;;;;;;;4958229;28;20057;-77
2023/10/11 04:33:20;;;;;;;9.23;5.38;;;;;;;;;;4955134;28;20210;-76
2023/10/11 04:35:58;;;;;;;11.07;5.72;;;;;;;;;;4938561;28;20086;-77
2023/10/11 04:38:23;;;;;;;13.02;5.53;;;;;;;;;;4961582;28;20051;-77
2023/10/11 04:40:52;;;;;;;11.38;6.30;;;;;;;;;;4939637;28;20039;-76
2023/10/11 04:43:23;;;;;;;10.73;5.65;;;;;;;;;;4946692;28;20031;-77
2023/10/11 04:45:51;;;;;;;12.07;5.97;;;;;;;;;;4939108;28;20031;-77
2023/10/11 04:48:33;;;;;;;13.85;6.22;;;;;;;;;;4955413;28;20039;-78
2023/10/11 04:53:58;;;;;;;9.95;5.55;;;;;;;;;;4961207;28;20085;-79
2023/10/11 04:59:19;;;;;;;15.15;5.82;;;;;;;;;;4939999;28;20031;-79
2023/10/11 05:04:26;;;;;;;12.00;5.57;;;;;;;;;;4972998;28;20045;-79
2023/10/11 05:06:53;;;;;;;9.93;5.55;;;;;;;;;;4945902;28;20041;-79
2023/10/11 05:09:29;;;;;;;9.98;5.82;;;;;;;;;;4974445;28;20027;-78
2023/10/11 05:12:07;;;;;;;11.60;6.30;;;;;;;;;;4953089;28;20027;-78
2023/10/11 05:14:39;;;;;;;12.60;6.03;;;;;;;;;;4948376;28;20133;-78
2023/10/11 05:30:44;;;;;;;10.00;5.50;;;;;;;;;;4910523;29;20036;-79
2023/10/11 05:33:41;;;;;;;11.43;5.40;;;;;;;;;;4937468;28;20056;-78
2023/10/11 05:36:32;;;;;;;13.18;5.38;;;;;;;;;;4964273;28;20108;-78
2023/10/11 05:50:50;;;;;;;9.40;4.85;;;;;;;;;;4957814;28;20905;-77
2023/10/11 05:52:49;;;;;;;11.18;6.03;;;;;;;;;;4956024;28;20513;-77
2023/10/11 05:55:16;;;;;;;14.00;5.60;;;;;;;;;;4958909;28;20035;-77
2023/10/11 05:57:42;;;;;;;11.88;5.45;;;;;;;;;;4956456;28;20499;-77
2023/10/11 06:00:23;;;;;;;11.48;5.15;;;;;;;;;;4942262;28;20682;-78
2023/10/11 06:02:49;;;;;;;10.70;5.15;;;;;;;;;;4956271;28;20041;-78
2023/10/11 06:05:17;;;;;;;9.30;4.93;;;;;;;;;;4958844;28;20039;-78
2023/10/11 06:07:42;;;;;;;10.68;5.25;;;;;;;;;;4956343;28;20289;-79
2023/10/11 06:10:08;;;;;;;11.15;5.30;;;;;;;;;;4972998;28;20043;-78
2023/10/11 06:12:35;;;;;;;11.68;5.05;;;;;;;;;;4957102;28;20050;-78
2023/10/11 06:15:05;;;;;;;10.18;5.22;;;;;;;;;;4958977;28;20062;-78
2023/10/11 06:17:49;;;;;;;10.80;5.30;;;;;;;;;;4957729;28;20043;-79
2023/10/11 06:20:27;;;;;;;9.55;4.90;;;;;;;;;;4944069;28;20038;-78
2023/10/11 06:22:54;;;;;;;9.63;5.30;;;;;;;;;;4974927;28;20384;-78
2023/10/11 06:25:40;;;;;;;9.63;5.00;;;;;;;;;;4957692;28;20436;-78
2023/10/11 06:28:13;;;;;;;8.55;4.72;;;;;;;;;;4934706;28;20039;-78
2023/10/11 06:30:51;;;;;;;8.77;4.82;;;;;;;;;;4940107;28;20043;-78
2023/10/11 06:33:21;;;;;;;9.20;4.78;;;;;;;;;;4972523;28;20034;-78
2023/10/11 06:35:49;;;;;;;11.38;5.22;;;;;;;;;;4958173;28;20027;-78
2023/10/11 06:38:15;;;;;;;8.93;4.50;;;;;;;;;;4963124;28;20121;-78
2023/10/11 06:40:54;;;;;;;8.82;4.60;;;;;;;;;;4957433;28;20142;-79
2023/10/11 06:43:20;;;;;;;10.70;4.82;;;;;;;;;;4959757;28;20660;-78
2023/10/11 06:45:46;;;;;;;8.70;4.72;;;;;;;;;;4954443;28;20050;-78
2023/10/11 06:48:14;;;;;;;11.15;4.50;;;;;;;;;;4956919;28;20042;-76
2023/10/11 06:50:40;;;;;;;10.27;4.47;;;;;;;;;;4956765;28;20057;-78
2023/10/11 06:53:10;;;;;;;11.55;4.50;;;;;;;;;;4956544;28;20037;-78
2023/10/11 06:55:39;;;;;;;11.52;4.82;;;;;;;;;;4955966;28;20114;-76
2023/10/11 06:58:15;;;;;;;10.05;4.38;;;;;;;;;;4976502;28;20516;-77
2023/10/11 07:00:45;;;;;;;7.93;4.20;;;;;;;;;;4971440;28;20039;-77
2023/10/11 07:03:38;;;;;;;11.00;4.60;;;;;;;;;;4956834;28;20671;-78
2023/10/11 07:06:10;;;;;;;9.90;4.83;;;;;;;;;;4973011;28;20043;-79
2023/10/11 07:08:35;;;;;;;8.90;4.32;;;;;;;;;;4941666;28;20136;-78
2023/10/11 07:11:16;;;;;;;11.40;4.10;;;;;;;;;;4970551;28;20106;-78
2023/10/11 07:13:56;;;;;;;12.75;4.20;;;;;;;;;;4956259;28;20101;-77
2023/10/11 07:16:23;;;;;;;9.32;4.07;;;;;;;;;;4958856;28;20219;-77
2023/10/11 07:18:54;;;;;;;11.85;4.30;;;;;;;;;;4940680;28;20031;-76
2023/10/11 07:21:20;;;;;;;8.00;4.45;;;;;;;;;;4939561;28;20439;-76
2023/10/11 07:26:23;;;;;;;10.55;4.55;;;;;;;;;;4954206;28;20038;-78
2023/10/11 07:28:52;;;;;;;10.35;4.43;;;;;;;;;;4957869;28;20117;-78
2023/10/11 07:31:19;;;;;;;8.50;4.28;;;;;;;;;;4960873;28;20491;-77
2023/10/11 07:33:55;;;;;;;9.32;4.00;;;;;;;;;;4971442;28;20035;-77
2023/10/11 07:36:22;;;;;;;9.32;4.10;;;;;;;;;;4968322;28;20487;-77
2023/10/11 07:38:56;;;;;;;7.22;3.75;;;;;;;;;;4955019;28;20051;-78
2023/10/11 07:41:28;;;;;;;10.15;4.30;;;;;;;;;;4945910;28;20483;-78
2023/10/11 07:43:56;;;;;;;7.57;3.67;;;;;;;;;;4956414;28;20158;-78
2023/10/11 07:46:22;;;;;;;8.20;3.92;;;;;;;;;;4970101;28;20031;-77
2023/10/11 07:48:47;;;;;;;8.30;3.90;;;;;;;;;;4957748;28;20038;-78
2023/10/11 07:51:13;;;;;;;7.32;3.83;;;;;;;;;;4971301;28;20042;-78
2023/10/11 07:53:46;;;;;;;10.55;4.55;;;;;;;;;;4953270;28;20039;-78
2023/10/11 07:56:15;;;;;;;8.80;3.90;;;;;;;;;;4960931;28;20438;-78
2023/10/11 07:58:45;;;;;;;8.57;3.78;;;;;;;;;;4954630;28;20046;-78
2023/10/11 08:01:45;;;;;;;8.50;3.78;;;;;;;;;;4955238;28;20035;-79
2023/10/11 08:04:08;;;;;;;7.00;3.42;;;;;;;;;;4952631;28;20138;-77
2023/10/11 08:06:39;;;;;;;8.27;3.80;;;;;;;;;;4954228;28;20066;-77
2023/10/11 08:09:09;;;;;;;9.05;3.80;;;;;;;;;;4955452;28;20566;-77
2023/10/11 08:11:45;;;;;;;6.88;3.42;;;;;;;;;;4972513;28;20047;-77
2023/10/11 08:14:15;;;;;;;10.57;3.78;;;;;;;;;;4954480;28;20046;-78
2023/10/11 08:16:41;;;;;;;10.10;3.63;;;;;;;;;;4961405;28;20037;-76
2023/10/11 08:19:07;;;;;;;10.52;3.47;;;;;;;;;;4954876;28;20105;-76
2023/10/11 08:21:32;;;;;;;11.57;3.55;;;;;;;;;;4945795;28;20883;-78
2023/10/11 08:23:58;;;;;;;6.88;3.15;;;;;;;;;;4971645;28;20077;-77
2023/10/11 08:26:32;;;;;;;11.05;3.70;;;;;;;;;;4958962;28;20067;-78
2023/10/11 08:29:05;;;;;;;8.68;3.13;;;;;;;;;;4946375;28;20043;-78
2023/10/11 08:33:59;;;;;;;6.32;3.53;;;;;;;;;;4955410;28;20031;-77
2023/10/11 08:36:29;;;;;;;7.97;3.80;;;;;;;;;;4955433;28;20070;-77
2023/10/11 08:38:55;;;;;;;8.63;3.30;;;;;;;;;;4955282;28;20045;-78
2023/10/11 08:41:22;;;;;;;9.60;3.65;;;;;;;;;;4947005;28;20063;-79
2023/10/11 08:43:54;;;;;;;7.73;3.30;;;;;;;;;;4940471;28;20451;-77
2023/10/11 08:46:20;;;;;;;9.25;3.60;;;;;;;;;;4953181;28;20270;-77
2023/10/11 08:48:50;;;;;;;7.65;3.35;;;;;;;;;;4955253;28;20039;-77
2023/10/11 08:51:21;;;;;;;7.65;3.50;;;;;;;;;;4931693;28;20049;-77
2023/10/11 08:53:54;;;;;;;6.75;3.40;;;;;;;;;;4961533;28;20061;-77
2023/10/11 08:56:22;;;;;;;7.80;3.72;;;;;;;;;;4945020;28;20110;-78
2023/10/11 08:58:51;;;;;;;8.35;3.42;;;;;;;;;;4935546;28;20042;-79
2023/10/11 09:01:17;;;;;;;6.53;3.33;;;;;;;;;;4956331;28;20054;-77
2023/10/11 09:03:43;;;;;;;7.18;3.08;;;;;;;;;;4962140;28;20769;-78
2023/10/11 09:06:23;;;;;;;7.55;3.33;;;;;;;;;;4958238;28;20119;-78
2023/10/11 09:08:52;;;;;;;8.45;3.70;;;;;;;;;;4959616;28;20628;-78
2023/10/11 09:11:31;;;;;;;9.18;3.92;;;;;;;;;;4941730;28;20047;-78
2023/10/11 09:14:22;;;;;;;7.00;2.92;;;;;;;;;;4960182;28;20030;-78
2023/10/11 09:16:52;;;;;;;8.95;3.30;;;;;;;;;;4941379;28;20058;-78
2023/10/11 09:19:20;;;;;;;8.73;3.40;;;;;;;;;;4965477;28;20055;-78
2023/10/11 09:22:03;;;;;;;7.18;3.00;;;;;;;;;;4958264;28;20039;-79
2023/10/11 09:24:29;;;;;;;6.47;3.17;;;;;;;;;;4949201;28;20165;-79
2023/10/11 09:27:12;;;;;;;7.85;2.92;;;;;;;;;;4963841;28;20065;-78
2023/10/11 09:29:38;;;;;;;8.02;4.15;;;;;;;;;;4958346;28;20034;-78
2023/10/11 09:32:05;;;;;;;10.40;3.97;;;;;;;;;;4972279;28;20436;-78
2023/10/11 09:34:31;;;;;;;9.23;3.78;;;;;;;;;;4959378;28;20395;-78
2023/10/11 09:36:57;;;;;;;9.75;3.53;;;;;;;;;;4941334;28;20028;-78
2023/10/11 09:39:22;;;;;;;8.02;3.30;;;;;;;;;;4958907;28;20108;-78
2023/10/11 09:41:53;;;;;;;9.38;3.28;;;;;;;;;;4952512;28;20122;-77
2023/10/11 09:44:21;;;;;;;10.65;3.55;;;;;;;;;;4942737;28;20042;-77
2023/10/11 09:46:48;;;;;;;8.43;3.13;;;;;;;;;;4957719;28;20039;-78
2023/10/11 09:49:13;;;;;;;6.43;3.20;;;;;;;;;;4975334;28;20047;-77
2023/10/11 09:51:46;;;;;;;7.32;3.10;;;;;;;;;;4958122;28;20038;-77
2023/10/11 09:54:12;;;;;;;7.80;3.33;;;;;;;;;;4958847;28;20125;-77
2023/10/11 09:57:13;;;;;;;10.45;3.00;;;;;;;;;;4941042;28;20039;-77
2023/10/11 09:59:44;;;;;;;7.57;2.85;;;;;;;;;;4959031;28;20539;-77
2023/10/11 10:02:34;;;;;;;6.85;3.20;;;;;;;;;;4971609;28;20503;-77
2023/10/11 10:05:04;;;;;;;6.00;3.10;;;;;;;;;;4953088;28;20602;-77
2023/10/11 10:10:08;;;;;;;7.78;3.30;;;;;;;;;;4979867;28;20117;-79
2023/10/11 10:13:09;;;;;;;6.47;3.08;;;;;;;;;;4973027;28;20535;-79
2023/10/11 10:15:47;;;;;;;6.47;3.15;;;;;;;;;;4954605;28;20039;-78
2023/10/11 10:18:19;;;;;;;8.75;3.45;;;;;;;;;;4963183;28;20078;-78
2023/10/11 10:20:46;;;;;;;6.78;2.90;;;;;;;;;;4962884;28;20031;-77
2023/10/11 10:23:15;;;;;;;6.23;2.70;;;;;;;;;;4958066;28;20521;-77
2023/10/11 10:25:46;;;;;;;7.80;3.13;;;;;;;;;;4956392;28;20066;-77
2023/10/11 10:28:34;;;;;;;8.57;3.35;;;;;;;;;;4958254;28;20035;-78
2023/10/11 10:31:10;;;;;;;8.50;3.10;;;;;;;;;;4958280;28;20082;-78
2023/10/11 10:33:36;;;;;;;9.05;3.13;;;;;;;;;;4960579;28;20581;-78
2023/10/11 10:36:20;;;;;;;6.55;2.92;;;;;;;;;;4972385;28;20043;-78
2023/10/11 10:38:58;;;;;;;7.40;3.00;;;;;;;;;;4965440;28;20498;-78
2023/10/11 10:41:27;;;;;;;9.85;3.05;;;;;;;;;;4957508;28;20761;-78
2023/10/11 10:44:04;;;;;;;7.25;3.08;;;;;;;;;;4958243;28;20790;-77
2023/10/11 10:46:32;;;;;;;;;;;;;;;;;;4973693;28;20045;-77
2023/10/11 10:48:58;;;;;;;11.32;3.00;;;;;;;;;;4968080;28;19921;-77
2023/10/11 10:51:27;;;;;;;9.65;3.53;;;;;;;;;;4950502;28;20039;-79
2023/10/11 10:53:53;;;;;;;5.63;2.80;;;;;;;;;;4956001;28;20035;-77
2023/10/11 10:56:25;;;;;;;7.43;3.05;;;;;;;;;;4939878;28;20058;-77
2023/10/11 10:59:14;;;;;;;9.80;3.10;;;;;;;;;;4943869;28;20042;-78
2023/10/11 11:01:45;;;;;;;8.55;3.20;;;;;;;;;;4957403;28;20171;-78
2023/10/11 11:04:12;;;;;;;8.90;3.50;;;;;;;;;;4949750;28;20035;-77
2023/10/11 11:06:48;;;;;;;6.47;2.90;;;;;;;;;;4927961;28;20392;-78
2023/10/11 11:09:18;;;;;;;6.43;3.00;;;;;;;;;;4939477;28;20036;-78
2023/10/11 11:11:53;;;;;;;6.55;3.05;;;;;;;;;;4957544;28;20416;-78
2023/10/11 11:14:19;;;;;;;7.60;2.60;;;;;;;;;;4957700;28;20041;-78
2023/10/11 11:16:57;;;;;;;11.18;3.08;;;;;;;;;;4954628;28;20045;-78
2023/10/11 11:19:25;;;;;;;8.20;2.78;;;;;;;;;;4947098;28;20051;-79
2023/10/11 11:22:11;;;;;;;8.48;3.10;;;;;;;;;;4945828;28;20049;-77
2023/10/11 11:24:41;;;;;;;6.90;3.05;;;;;;;;;;4940637;28;20498;-79
2023/10/11 11:27:25;;;;;;;8.68;2.80;;;;;;;;;;4954201;28;20038;-77
2023/10/11 11:29:52;;;;;;;6.63;2.58;;;;;;;;;;4973271;28;20039;-80
2023/10/11 11:32:23;;;;;;;6.88;3.13;;;;;;;;;;4955701;28;20039;-78
2023/10/11 11:35:02;;;;;;;11.25;2.97;;;;;;;;;;4941584;28;20130;-77
2023/10/11 11:37:29;;;;;;;7.28;2.85;;;;;;;;;;4953008;28;20041;-78
2023/10/11 11:40:17;;;;;;;7.00;3.10;;;;;;;;;;4969542;28;20528;-78
2023/10/11 11:42:47;;;;;;;6.03;2.65;;;;;;;;;;4956102;28;20043;-77
2023/10/11 11:45:16;;;;;;;6.22;2.85;;;;;;;;;;4977188;28;20063;-78
2023/10/11 11:47:57;;;;;;;8.93;2.95;;;;;;;;;;4954489;28;20042;-78
2023/10/11 11:50:24;;;;;;;7.80;2.90;;;;;;;;;;4957800;28;20046;-78
2023/10/11 11:52:50;;;;;;;5.68;2.65;;;;;;;;;;4937876;28;20038;-78
2023/10/11 11:55:17;;;;;;;6.03;2.80;;;;;;;;;;4939623;28;20841;-77
2023/10/11 11:57:43;;;;;;;5.50;2.88;;;;;;;;;;4955249;28;20042;-77
2023/10/11 12:02:54;;;;;;;7.47;3.20;;;;;;;;;;4955422;28;20050;-82
2023/10/11 12:05:20;;;;;;;7.95;2.92;;;;;;;;;;4945904;28;20130;-83
2023/10/11 12:07:58;;;;;;;11.02;3.00;;;;;;;;;;4974872;28;20035;-82
2023/10/11 12:10:24;;;;;;;7.18;2.65;;;;;;;;;;4955669;28;20438;-84
2023/10/11 12:13:05;;;;;;;9.53;3.27;;;;;;;;;;4956976;28;20069;-83
2023/10/11 12:16:05;;;;;;;6.63;3.22;;;;;;;;;;4954800;28;20459;-83
2023/10/11 12:18:38;;;;;;;11.70;3.75;;;;;;;;;;4932001;28;20151;-83
2023/10/11 12:21:10;;;;;;;8.23;3.15;;;;;;;;;;4941063;28;20126;-82
2023/10/11 12:23:37;;;;;;;12.20;3.38;;;;;;;;;;4940974;28;20121;-83
2023/10/11 12:26:04;;;;;;;8.02;2.92;;;;;;;;;;4929093;28;20056;-81
2023/10/11 12:28:29;;;;;;;7.50;3.03;;;;;;;;;;4954834;28;20459;-78
2023/10/11 12:30:54;;;;;;;10.23;3.00;;;;;;;;;;4940850;28;20042;-77
2023/10/11 12:33:20;;;;;;;8.73;2.80;;;;;;;;;;4952742;28;20086;-78
2023/10/11 12:35:49;;;;;;;7.40;2.88;;;;;;;;;;4936105;28;20046;-78
2023/10/11 12:38:15;;;;;;;9.38;3.05;;;;;;;;;;4936549;28;20043;-78
2023/10/11 12:40:41;;;;;;;8.27;2.90;;;;;;;;;;4940263;28;20113;-78
2023/10/11 12:43:09;;;;;;;9.18;3.30;;;;;;;;;;4965664;28;20034;-78
2023/10/11 12:45:42;;;;;;;8.43;3.13;;;;;;;;;;4941689;28;20051;-79
2023/10/11 12:48:10;;;;;;;10.07;3.22;;;;;;;;;;4948942;28;20515;-78
2023/10/11 12:50:39;;;;;;;6.97;3.03;;;;;;;;;;4951857;28;20399;-77
2023/10/11 12:53:10;;;;;;;5.85;2.72;;;;;;;;;;4949387;28;20038;-77
2023/10/11 12:55:43;;;;;;;6.03;2.80;;;;;;;;;;4979993;28;20043;-78
2023/10/11 12:58:11;;;;;;;8.20;2.75;;;;;;;;;;4960156;28;20681;-79
2023/10/11 13:01:01;;;;;;;7.22;2.70;;;;;;;;;;4951263;28;20038;-79
2023/10/11 13:03:29;;;;;;;;;;;;;;;;;;4948028;28;20047;-79
2023/10/11 13:06:03;;;;;;;6.70;3.10;;;;;;;;;;4971957;28;20369;-79
2023/10/11 13:08:29;;;;;;;5.72;2.53;;;;;;;;;;4958829;28;20063;-79
2023/10/11 13:10:54;;;;;;;5.95;3.00;;;;;;;;;;4964080;28;20073;-78
2023/10/11 13:13:21;;;;;;;9.98;3.35;;;;;;;;;;4931270;28;20958;-79
2023/10/11 13:15:59;;;;;;;6.72;2.80;;;;;;;;;;4973799;28;20057;-78
2023/10/11 13:18:37;;;;;;;6.28;2.92;;;;;;;;;;4956663;28;20143;-78
2023/10/11 13:21:11;;;;;;;8.20;2.58;;;;;;;;;;4951072;28;20049;-81
2023/10/11 13:23:39;;;;;;;7.75;2.80;;;;;;;;;;4943995;28;20499;-78
2023/10/11 13:26:08;;;;;;;9.02;3.20;;;;;;;;;;4952110;28;20026;-78
2023/10/11 13:28:38;;;;;;;8.60;3.25;;;;;;;;;;4963755;28;20031;-79
2023/10/11 13:31:09;;;;;;;5.70;2.83;;;;;;;;;;4942521;28;20035;-79
2023/10/11 13:33:35;;;;;;;6.30;2.80;;;;;;;;;;4958769;28;20062;-78
2023/10/11 13:36:04;;;;;;;10.68;3.45;;;;;;;;;;4957577;28;20113;-78
2023/10/11 13:38:31;;;;;;;9.05;3.10;;;;;;;;;;4948298;28;20440;-79
2023/10/11 13:40:58;;;;;;;7.75;3.10;;;;;;;;;;4958578;28;20037;-78
2023/10/11 13:43:24;;;;;;;10.23;3.25;;;;;;;;;;4947631;28;20163;-77
2023/10/11 13:45:56;;;;;;;8.13;3.20;;;;;;;;;;4949991;28;20121;-79
2023/10/11 13:48:27;;;;;;;7.35;3.00;;;;;;;;;;4950225;28;20503;-79
2023/10/11 13:50:54;;;;;;;6.15;2.90;;;;;;;;;;4947836;28;20046;-79
2023/10/11 13:53:20;;;;;;;7.57;3.20;;;;;;;;;;4947875;28;20088;-79
2023/10/11 13:55:50;;;;;;;6.73;3.07;;;;;;;;;;4956373;28;20031;-79
2023/10/11 13:58:16;;;;;;;6.25;2.83;;;;;;;;;;4940393;28;20270;-78
2023/10/11 14:05:44;;;;;;;6.55;3.08;;;;;;;;;;4973580;28;20042;-79
2023/10/11 14:10:48;;;;;;;9.68;2.92;;;;;;;;;;4962579;28;20815;-78
2023/10/11 14:13:13;;;;;;;7.38;3.53;;;;;;;;;;4957875;28;20031;-78
2023/10/11 14:15:38;;;;;;;8.50;2.80;;;;;;;;;;4958201;28;20045;-78
2023/10/11 14:18:11;;;;;;;8.23;2.90;;;;;;;;;;4950763;28;20093;-78
2023/10/11 14:20:36;;;;;;;8.88;2.97;;;;;;;;;;4950591;28;20345;-79
2023/10/11 14:23:04;;;;;;;8.60;2.75;;;;;;;;;;4957783;28;20046;-79
2023/10/11 14:25:31;;;;;;;7.18;3.00;;;;;;;;;;4973903;28;20039;-78
2023/10/11 14:27:56;;;;;;;7.82;2.97;;;;;;;;;;4944527;28;20045;-79
2023/10/11 14:30:23;;;;;;;7.53;3.13;;;;;;;;;;4941467;28;20410;-79
2023/10/11 14:32:50;;;;;;;6.68;2.83;;;;;;;;;;4937799;28;20039;-78
2023/10/11 14:35:17;;;;;;;9.82;3.30;;;;;;;;;;4956930;28;20114;-78
2023/10/11 14:37:43;;;;;;;6.65;2.88;;;;;;;;;;4958368;28;20066;-78
2023/10/11 14:40:14;;;;;;;7.20;3.10;;;;;;;;;;4958055;28;20125;-77
2023/10/11 14:42:44;;;;;;;7.90;2.97;;;;;;;;;;4946579;28;20556;-78
2023/10/11 14:45:14;;;;;;;7.55;2.70;;;;;;;;;;4962762;28;20039;-77
2023/10/11 14:47:45;;;;;;;6.10;2.70;;;;;;;;;;4940583;28;20932;-78
2023/10/11 14:50:13;;;;;;;10.30;3.03;;;;;;;;;;4975004;28;20113;-78
2023/10/11 14:52:40;;;;;;;8.38;3.20;;;;;;;;;;4957151;28;20507;-78
2023/10/11 14:55:16;;;;;;;8.40;2.72;;;;;;;;;;4958319;28;22385;-78
2023/10/11 14:57:51;;;;;;;9.60;3.13;;;;;;;;;;4975455;28;20038;-78
2023/10/11 15:00:23;;;;;;;8.20;2.97;;;;;;;;;;4958061;28;20911;-78
2023/10/11 15:02:50;;;;;;;7.82;2.88;;;;;;;;;;4977242;28;20439;-78
2023/10/11 15:05:16;;;;;;;8.37;2.93;;;;;;;;;;4958095;28;20042;-79
2023/10/11 15:07:46;;;;;;;9.90;2.85;;;;;;;;;;4955756;28;20039;-78
2023/10/11 15:10:15;;;;;;;8.43;3.08;;;;;;;;;;4957850;28;20762;-77
2023/10/11 15:12:41;;;;;;;5.60;2.60;;;;;;;;;;4937165;28;20109;-78
2023/10/11 15:15:09;;;;;;;6.45;2.70;;;;;;;;;;4937825;28;20086;-77
2023/10/11 15:17:34;;;;;;;7.75;3.00;;;;;;;;;;4951028;28;20515;-78
2023/10/11 15:19:59;;;;;;;8.43;2.95;;;;;;;;;;4956842;28;20039;-78
2023/10/11 15:22:27;;;;;;;7.55;2.88;;;;;;;;;;4945207;28;20050;-78
2023/10/11 15:24:54;;;;;;;8.52;3.00;;;;;;;;;;4956379;28;20098;-78
2023/10/11 15:27:19;;;;;;;6.65;2.55;;;;;;;;;;4941584;28;20031;-78
2023/10/11 15:29:46;;;;;;;11.38;3.13;;;;;;;;;;4957219;28;20035;-78
2023/10/11 15:32:13;;;;;;;7.55;2.90;;;;;;;;;;4954866;28;20067;-78
2023/10/11 15:34:39;;;;;;;8.20;2.67;;;;;;;;;;4946361;28;20045;-78
2023/10/11 15:37:06;;;;;;;7.80;2.85;;;;;;;;;;4938415;28;20391;-78
2023/10/11 15:39:32;;;;;;;7.83;2.77;;;;;;;;;;4958579;28;20039;-78
2023/10/11 15:41:57;;;;;;;9.45;3.67;;;;;;;;;;4969102;28;20305;-78
2023/10/11 15:44:25;;;;;;;7.57;3.17;;;;;;;;;;4939837;28;20413;-79
2023/10/11 15:46:51;;;;;;;9.10;3.00;;;;;;;;;;4938937;28;20419;-83
2023/10/11 15:49:16;;;;;;;9.88;3.10;;;;;;;;;;4956712;28;20042;-82
2023/10/11 15:51:42;;;;;;;7.32;2.80;;;;;;;;;;4940220;28;20531;-83
2023/10/11 15:54:09;;;;;;;8.38;3.05;;;;;;;;;;4973803;28;20038;-82
2023/10/11 15:56:34;;;;;;;9.00;2.92;;;;;;;;;;4932527;28;20038;-83